Mosby, MO

3:42 AM CDT on July 28, 2017 (GMT -0500)
Clay County Regional

Weather History for KGPH - February, 2013

Change the Weather History Date:

Monday, February 25, 2013

  Actual Average (KMKC) Record (KMKC)
Temperature  
Mean Temperature 32 °F -  
Max Temperature 37 °F 44 °F 71 °F (1997)
Min Temperature 28 °F 27 °F 1 °F (2003)
Degree Days  
Heating Degree Days 32    
Moisture  
Dew Point 28 °F    
Average Humidity 78    
Maximum Humidity 93    
Minimum Humidity 69    
Precipitation  
Precipitation 0.00 in - - ()
Sea Level Pressure  
Sea Level Pressure 29.90 in    
Wind  
Wind Speed 6 mph (NNE)    
Max Wind Speed 20 mph    
Max Gust Speed 25 mph    
Visibility 9 miles    
Events Rain , Snow    
Averages and records for this station are not official NWS values.
T = Trace of Precipitation, MM = Missing Value Source: NWS Daily Summary

Daily Weather History Graph

Daily Weather History Graph

Search for Another Location

Airport or City:

Trip Planner

Search our weather history database for the weather conditions in past years. The results will help you decide how hot, cold, wet, or windy it might be!

Date:

Astronomy

Feb. 25, 2013 Rise Set
Actual Time 6:55 AM CST 6:05 PM CST
Civil Twilight 6:28 AM CST 6:32 PM CST
Nautical Twilight 5:57 AM CST 7:03 PM CST
Astronomical Twilight 5:26 AM CST 7:34 PM CST
Moon 6:19 PM CST (2/25) 6:26 AM CST (2/25)
Length of Visible Light 12h 04m
Length of Day
11h 10m
Full, 100% of the Moon is Illuminated
Feb 25
Full
Feb 25
Full
Mar 4
Last Quarter
Mar 11
New
Mar 19
First Quarter

Hourly Weather History & Observations

Time (CST) Temp. Windchill Dew Point Humidity Pressure Visibility Wind Dir Wind Speed Gust Speed Precip Events Conditions
12:15 AM 33.8 °F 28.6 °F 24.8 °F 70% 29.99 in 10.0 mi East 5.8 mph - N/A   Scattered Clouds
12:35 AM 33.8 °F 27.7 °F 24.8 °F 70% 29.99 in 10.0 mi ENE 6.9 mph - N/A   Unknown
12:55 AM 33.8 °F 29.6 °F 24.8 °F 70% 29.98 in 10.0 mi ENE 4.6 mph - N/A   Scattered Clouds
1:15 AM 32.0 °F 26.4 °F 24.8 °F 75% 29.98 in 10.0 mi ENE 5.8 mph - N/A   Clear
1:35 AM 32.0 °F 27.5 °F 24.8 °F 75% 29.98 in 10.0 mi ENE 4.6 mph - N/A   Clear
1:55 AM 32.0 °F 26.4 °F 23.0 °F 69% 29.97 in 10.0 mi North 5.8 mph - N/A   Clear
2:15 AM 32.0 °F - 24.8 °F 75% 29.98 in 10.0 mi Calm Calm - N/A   Clear
2:35 AM 32.0 °F - 24.8 °F 75% 29.99 in 10.0 mi Calm Calm - N/A   Clear
2:55 AM 32.0 °F - 24.8 °F 75% 29.99 in 10.0 mi Calm Calm - N/A   Clear
3:15 AM 32.0 °F - 24.8 °F 75% 29.99 in 10.0 mi Calm Calm - N/A   Scattered Clouds
3:35 AM 32.0 °F - 24.8 °F 75% 29.98 in 10.0 mi Calm Calm - N/A   Mostly Cloudy
3:55 AM 32.0 °F - 24.8 °F 75% 29.97 in 10.0 mi Calm Calm - N/A   Scattered Clouds
4:15 AM 32.0 °F - 24.8 °F 75% 29.97 in 10.0 mi Calm Calm - N/A   Clear
4:35 AM 28.4 °F - 23.0 °F 80% 29.97 in 10.0 mi Calm Calm - N/A   Clear
4:55 AM 28.4 °F - 23.0 °F 80% 29.97 in 10.0 mi Calm Calm - N/A   Clear
5:15 AM 32.0 °F - 26.6 °F 80% 29.96 in 10.0 mi Calm Calm - N/A   Clear
5:35 AM 32.0 °F 27.5 °F 24.8 °F 75% 29.97 in 10.0 mi North 4.6 mph - N/A   Clear
5:55 AM 32.0 °F 27.5 °F 24.8 °F 75% 29.97 in 10.0 mi North 4.6 mph - N/A   Clear
6:15 AM 32.0 °F 28.7 °F 24.8 °F 75% 29.98 in 10.0 mi NE 3.5 mph - N/A   Unknown
6:35 AM 30.2 °F - 24.8 °F 80% 29.98 in 10.0 mi Calm Calm - N/A   Clear
6:55 AM 30.2 °F - 24.8 °F 80% 29.98 in 10.0 mi Calm Calm - N/A   Clear
7:15 AM 30.2 °F - 24.8 °F 80% 29.98 in 10.0 mi Calm Calm - N/A   Clear
7:35 AM 30.2 °F 25.4 °F 24.8 °F 80% 29.97 in 10.0 mi North 4.6 mph - N/A   Scattered Clouds
7:55 AM 30.2 °F - 26.6 °F 86% 29.98 in 10.0 mi Calm Calm - N/A   Scattered Clouds
8:15 AM 30.2 °F 25.4 °F 26.6 °F 86% 29.99 in 10.0 mi North 4.6 mph - N/A   Clear
8:35 AM 32.0 °F 28.7 °F 26.6 °F 80% 29.98 in 10.0 mi NNE 3.5 mph - N/A   Clear
8:55 AM 32.0 °F 25.6 °F 26.6 °F 80% 29.96 in 10.0 mi NE 6.9 mph - N/A   Clear
9:15 AM 32.0 °F 26.4 °F 26.6 °F 80% 29.96 in 10.0 mi NNE 5.8 mph - N/A   Clear
9:35 AM 33.8 °F 29.6 °F 26.6 °F 75% 29.97 in 10.0 mi NE 4.6 mph - N/A   Clear
9:55 AM 33.8 °F 29.6 °F 26.6 °F 75% 29.96 in 10.0 mi NE 4.6 mph - N/A   Clear
10:15 AM 33.8 °F 29.6 °F 26.6 °F 75% 29.97 in 10.0 mi NE 4.6 mph - N/A   Clear
10:35 AM 33.8 °F 27.7 °F 28.4 °F 81% 29.96 in 10.0 mi NE 6.9 mph - N/A   Clear
10:55 AM 35.6 °F 31.7 °F 28.4 °F 75% 29.97 in 10.0 mi NNE 4.6 mph - N/A   Clear
11:15 AM 35.6 °F 28.6 °F 28.4 °F 75% 29.96 in 10.0 mi NNE 9.2 mph - N/A   Clear
11:35 AM 35.6 °F 30.7 °F 28.4 °F 75% 29.96 in 10.0 mi NE 5.8 mph - N/A   Clear
11:55 AM 35.6 °F 30.7 °F 28.4 °F 75% 29.96 in 10.0 mi NNE 5.8 mph - N/A   Clear
12:15 PM 35.6 °F 29.2 °F 28.4 °F 75% 29.95 in 10.0 mi NNE 8.1 mph - N/A   Clear
12:35 PM 37.4 °F 32.1 °F 28.4 °F 70% 29.93 in 10.0 mi NNE 6.9 mph - N/A   Clear
12:55 PM 37.4 °F 31.4 °F 28.4 °F 70% 29.92 in 10.0 mi NNE 8.1 mph - N/A   Clear
1:15 PM 37.4 °F 30.8 °F 28.4 °F 70% 29.91 in 10.0 mi NE 9.2 mph - N/A   Clear
1:35 PM 37.4 °F 30.8 °F 28.4 °F 70% 29.90 in 10.0 mi NNE 9.2 mph - N/A   Clear
1:55 PM 37.4 °F 32.8 °F 28.4 °F 70% 29.89 in 10.0 mi NNE 5.8 mph - N/A   Clear
2:15 PM 37.4 °F 32.8 °F 28.4 °F 70% 29.87 in 10.0 mi NNE 5.8 mph - N/A   Scattered Clouds
2:35 PM 37.4 °F 30.3 °F 28.4 °F 70% 29.86 in 10.0 mi NNE 10.4 mph - N/A   Mostly Cloudy
2:55 PM 37.4 °F 30.3 °F 28.4 °F 70% 29.87 in 10.0 mi NNE 10.4 mph 18.4 mph N/A   Overcast
3:15 PM 37.4 °F 31.4 °F 28.4 °F 70% 29.86 in 10.0 mi NNE 8.1 mph - N/A   Overcast
3:35 PM 37.4 °F 30.3 °F 28.4 °F 70% 29.87 in 10.0 mi NNE 10.4 mph - N/A   Overcast
3:55 PM 37.4 °F 33.8 °F 28.4 °F 70% 29.89 in 10.0 mi North 4.6 mph - N/A   Overcast
4:15 PM 37.4 °F 32.1 °F 28.4 °F 70% 29.89 in 10.0 mi NNE 6.9 mph - N/A   Overcast
4:35 PM 37.4 °F 29.3 °F 28.4 °F 70% 29.87 in 10.0 mi NNE 12.7 mph 16.1 mph N/A   Overcast
4:55 PM 37.4 °F 29.3 °F 28.4 °F 70% 29.87 in 10.0 mi NNE 12.7 mph - N/A   Unknown
5:15 PM 37.4 °F 28.5 °F 30.2 °F 75% 29.86 in 5.0 mi ENE 15.0 mph 23.0 mph N/A Snow Light Snow
5:35 PM 33.8 °F 24.3 °F 32.0 °F 93% 29.84 in 4.0 mi NNE 13.8 mph - N/A Snow Light Snow
5:55 PM 33.8 °F 23.5 °F 32.0 °F 93% 29.82 in 3.0 mi NNE 16.1 mph 21.9 mph N/A Snow Light Snow
6:15 PM 33.8 °F 22.5 °F 32.0 °F 93% 29.82 in 7.0 mi North 19.6 mph - N/A Rain Light Rain
6:35 PM 33.8 °F 22.8 °F 32.0 °F 93% 29.79 in 7.0 mi North 18.4 mph 25.3 mph N/A   Overcast
6:55 PM 35.6 °F 25.2 °F 32.0 °F 87% 29.78 in 10.0 mi NNE 18.4 mph 25.3 mph N/A   Overcast
7:15 PM 35.6 °F 25.5 °F 32.0 °F 87% 29.77 in 10.0 mi North 17.3 mph 23.0 mph N/A   Overcast
7:35 PM 35.6 °F 26.6 °F 32.0 °F 87% 29.75 in 10.0 mi NNE 13.8 mph 24.2 mph N/A   Overcast
7:55 PM 35.6 °F 27.1 °F 32.0 °F 87% 29.77 in 10.0 mi NNE 12.7 mph 19.6 mph N/A   Overcast
8:15 PM 37.4 °F 28.2 °F 32.0 °F 81% 29.75 in 10.0 mi NE 16.1 mph 24.2 mph N/A   Unknown
8:35 PM 37.4 °F 28.9 °F 30.2 °F 75% 29.79 in 10.0 mi ENE 13.8 mph 19.6 mph N/A   Overcast
8:55 PM 37.4 °F 28.9 °F 30.2 °F 75% 29.80 in 10.0 mi ENE 13.8 mph 17.3 mph N/A Rain Light Rain
9:15 PM 37.4 °F 31.4 °F 30.2 °F 75% 29.80 in 10.0 mi NE 8.1 mph 17.3 mph N/A Snow Light Snow
9:35 PM 37.4 °F 29.8 °F 30.2 °F 75% 29.78 in 10.0 mi NNE 11.5 mph 17.3 mph N/A Rain Light Rain
9:55 PM 37.4 °F 30.3 °F 30.2 °F 75% 29.77 in 10.0 mi NE 10.4 mph 21.9 mph N/A Rain Light Rain
10:15 PM 35.6 °F 27.1 °F 32.0 °F 87% 29.77 in 7.0 mi NE 12.7 mph 21.9 mph N/A Rain Light Rain
10:35 PM 35.6 °F 28.6 °F 32.0 °F 87% 29.78 in 5.0 mi NNE 9.2 mph 16.1 mph N/A Snow Light Snow
10:55 PM 33.8 °F 25.8 °F 32.0 °F 93% 29.76 in 4.0 mi NNE 10.4 mph - N/A Snow Light Snow
11:15 PM 33.8 °F 25.3 °F 32.0 °F 93% 29.74 in 2.0 mi NNE 11.5 mph - N/A Snow Light Snow
11:35 PM 33.8 °F 26.4 °F 32.0 °F 93% 29.73 in 1.5 mi North 9.2 mph - N/A Snow Light Snow
11:55 PM 33.8 °F 25.3 °F 32.0 °F 93% 29.70 in 2.0 mi North 11.5 mph - N/A Snow Light Snow